createdAt,value
2022-08-09T00:04:24.999Z,8.90
2022-08-09T00:10:31.569Z,6.25
2022-08-09T00:16:38.497Z,10.98
2022-08-09T00:22:40.023Z,10.10
2022-08-09T00:28:41.555Z,10.13
2022-08-09T00:34:54.370Z,7.93
2022-08-09T00:40:55.980Z,6.78
2022-08-09T00:47:04.968Z,9.15
2022-08-09T00:53:10.418Z,6.85
2022-08-09T00:59:13.139Z,8.40
2022-08-09T01:05:22.021Z,6.97
2022-08-09T01:11:24.097Z,8.57
2022-08-09T01:17:26.504Z,6.55
2022-08-09T01:24:01.987Z,6.28
2022-08-09T01:29:55.925Z,9.13
2022-08-09T01:35:59.129Z,6.28
2022-08-09T01:42:03.086Z,6.22
2022-08-09T01:48:12.448Z,7.15
2022-08-09T01:54:17.050Z,7.40
2022-08-09T02:00:35.248Z,8.80
2022-08-09T02:06:58.650Z,9.80
2022-08-09T02:13:00.504Z,7.38
2022-08-09T02:19:02.791Z,9.00
2022-08-09T02:25:07.230Z,7.15
2022-08-09T02:31:09.604Z,6.93
2022-08-09T02:37:12.095Z,7.28
2022-08-09T02:43:13.824Z,8.77
2022-08-09T02:49:15.705Z,9.30
2022-08-09T02:55:20.640Z,7.63
2022-08-09T03:01:29.330Z,6.97
2022-08-09T03:07:54.782Z,8.48
2022-08-09T03:13:59.406Z,11.43
2022-08-09T03:20:05.138Z,6.65
2022-08-09T03:26:12.821Z,8.68
2022-08-09T03:32:16.513Z,8.15
2022-08-09T03:38:29.211Z,7.20
2022-08-09T03:44:32.142Z,7.78
2022-08-09T03:50:33.583Z,7.07
2022-08-09T03:56:35.045Z,8.20
2022-08-09T04:02:36.892Z,10.88
2022-08-09T04:08:38.614Z,8.10
2022-08-09T04:15:00.719Z,9.68
2022-08-09T04:21:01.550Z,9.02
2022-08-09T04:27:05.424Z,8.02
2022-08-09T04:33:10.399Z,7.10
2022-08-09T04:39:12.793Z,7.60
2022-08-09T04:45:15.029Z,7.53
2022-08-09T04:51:16.657Z,8.07
2022-08-09T04:57:21.515Z,8.55
2022-08-09T05:03:41.131Z,9.13
2022-08-09T05:09:49.593Z,11.20
2022-08-09T05:15:56.459Z,9.88
2022-08-09T05:21:59.177Z,15.18
2022-08-09T05:28:01.763Z,11.50
2022-08-09T05:34:03.259Z,11.13
2022-08-09T05:40:04.994Z,14.13
2022-08-09T05:46:06.609Z,24.70
2022-08-09T05:52:08.598Z,25.05
2022-08-09T05:58:10.452Z,18.40
2022-08-09T06:04:23.454Z,26.23
2022-08-09T06:10:38.018Z,35.78
2022-08-09T06:16:39.638Z,35.30
2022-08-09T06:22:43.097Z,30.42
2022-08-09T06:28:47.185Z,44.15
2022-08-09T06:34:52.971Z,36.50
2022-08-09T06:40:55.235Z,35.88
2022-08-09T06:46:56.948Z,21.67
2022-08-09T06:53:00.919Z,19.67
2022-08-09T07:00:52.034Z,26.27
2022-08-09T07:05:24.673Z,52.85
2022-08-09T07:11:52.126Z,28.35
2022-08-09T07:18:01.968Z,36.88
2022-08-09T07:24:04.990Z,31.88
2022-08-09T07:30:06.544Z,30.08
2022-08-09T07:36:09.456Z,42.60
2022-08-09T07:42:11.687Z,48.97
2022-08-09T07:48:28.731Z,31.48
2022-08-09T07:54:32.199Z,26.45
2022-08-09T08:00:35.783Z,25.45
2022-08-09T08:06:45.479Z,47.13
2022-08-09T08:12:57.609Z,28.38
2022-08-09T08:18:59.171Z,31.65
2022-08-09T08:25:01.170Z,38.63
2022-08-09T08:31:13.757Z,46.03
2022-08-09T08:37:17.774Z,27.80
2022-08-09T08:43:19.465Z,33.80
2022-08-09T08:49:33.358Z,26.38
2022-08-09T08:55:40.491Z,26.50
2022-08-09T09:01:51.930Z,18.35
2022-08-09T09:07:55.072Z,22.58
2022-08-09T09:13:58.852Z,16.65
2022-08-09T09:20:01.024Z,14.35
2022-08-09T09:26:12.638Z,14.95
2022-08-09T09:32:15.418Z,12.13
2022-08-09T09:38:27.656Z,18.63
2022-08-09T09:44:37.886Z,12.95
2022-08-09T09:50:39.393Z,11.93
2022-08-09T09:58:00.231Z,11.27
2022-08-09T10:03:13.966Z,16.30
2022-08-09T10:09:22.049Z,18.42
2022-08-09T10:15:50.670Z,29.63
2022-08-09T10:21:48.569Z,27.60
2022-08-09T10:27:57.605Z,26.27
2022-08-09T10:34:10.301Z,24.17
2022-08-09T10:40:35.095Z,24.73
2022-08-09T10:46:52.565Z,21.33
2022-08-09T10:52:56.614Z,19.17
2022-08-09T10:59:01.792Z,15.95
2022-08-09T11:05:04.707Z,13.02
2022-08-09T11:11:08.503Z,11.38
2022-08-09T11:17:10.633Z,18.33
2022-08-09T11:23:12.307Z,23.25
2022-08-09T11:29:14.678Z,20.85
2022-08-09T11:35:50.233Z,29.75
2022-08-09T11:41:58.551Z,34.83
2022-08-09T11:48:06.544Z,28.23
2022-08-09T11:54:14.603Z,32.58
2022-08-09T12:00:29.903Z,42.28
2022-08-09T12:06:35.076Z,49.22
2022-08-09T12:12:36.919Z,23.45
2022-08-09T12:18:38.571Z,21.90
2022-08-09T12:24:40.051Z,17.58
2022-08-09T12:30:44.545Z,20.58
2022-08-09T12:36:46.044Z,14.80
2022-08-09T12:42:52.576Z,14.50
2022-08-09T12:48:54.157Z,13.18
2022-08-09T12:56:11.763Z,19.55
2022-08-09T13:01:17.389Z,27.60
2022-08-09T13:07:50.274Z,21.52
2022-08-09T13:14:42.412Z,77.25
2022-08-09T13:20:16.244Z,47.50
2022-08-09T13:26:23.375Z,82.47
2022-08-09T13:32:40.250Z,49.53
2022-08-09T13:38:57.238Z,34.15
2022-08-09T13:45:00.570Z,38.20
2022-08-09T13:51:02.492Z,48.42
2022-08-09T13:57:06.433Z,63.97
2022-08-09T14:04:01.551Z,45.53
2022-08-09T14:09:29.848Z,46.03
2022-08-09T14:16:09.131Z,27.25
2022-08-09T14:21:57.946Z,31.52
2022-08-09T14:27:59.878Z,30.40
2022-08-09T14:34:04.116Z,26.05
2022-08-09T14:40:09.542Z,28.25
2022-08-09T14:46:54.312Z,54.97
2022-08-09T14:52:33.858Z,48.47
2022-08-09T14:58:43.807Z,40.20
2022-08-09T15:04:45.739Z,37.25
2022-08-09T15:11:00.407Z,42.67
2022-08-09T15:17:09.343Z,29.20
2022-08-09T15:24:05.985Z,37.33
2022-08-09T15:30:59.794Z,26.38
2022-08-09T15:36:02.051Z,23.98
2022-08-09T15:42:04.025Z,37.30
2022-08-09T15:48:17.843Z,22.85
2022-08-09T15:54:38.213Z,23.50
2022-08-09T16:00:45.983Z,20.25
2022-08-09T16:06:50.825Z,32.30
2022-08-09T16:12:53.586Z,22.95
2022-08-09T16:18:55.791Z,30.85
2022-08-09T16:24:59.590Z,18.10
2022-08-09T16:31:02.871Z,13.85
2022-08-09T16:37:07.877Z,8.65
2022-08-09T16:43:14.330Z,12.32
2022-08-09T16:49:26.966Z,21.90
2022-08-09T16:55:57.821Z,24.00
2022-08-09T17:01:59.431Z,21.15
2022-08-09T17:08:44.100Z,10.85
2022-08-09T17:14:27.463Z,19.17
2022-08-09T17:20:36.364Z,32.00
2022-08-09T17:26:42.002Z,34.60
2022-08-09T17:32:49.314Z,31.85
2022-08-09T17:38:57.485Z,62.05
2022-08-09T17:44:59.564Z,28.88
2022-08-09T17:51:08.797Z,53.67
2022-08-09T17:58:02.237Z,48.60
2022-08-09T18:03:41.545Z,45.25
2022-08-09T18:09:43.464Z,40.90
2022-08-09T18:16:08.122Z,38.50
2022-08-09T18:22:13.085Z,34.28
2022-08-09T18:30:36.344Z,52.85
2022-08-09T18:34:40.024Z,34.42
2022-08-09T18:40:44.301Z,33.63
2022-08-09T18:47:07.465Z,24.80
2022-08-09T18:53:13.339Z,22.10
2022-08-09T18:59:18.029Z,39.95
2022-08-09T19:05:49.308Z,28.27
2022-08-09T19:11:44.626Z,36.85
2022-08-09T19:17:54.668Z,21.60
2022-08-09T19:24:36.457Z,34.47
2022-08-09T19:30:25.095Z,28.08
2022-08-09T19:36:30.795Z,23.15
2022-08-09T19:42:34.417Z,24.58
2022-08-09T19:49:00.126Z,21.95
2022-08-09T19:54:58.965Z,25.30
2022-08-09T20:01:01.561Z,14.60
